Airfield :







YOU CAN JOIN US ON...

 
LOGIN :

Register | Disclaimer

   EN    FR    IT 

 









Legend :    VFR   Marginal VFR   IFR   Intensive IFR   Very Intensive IFR
Visi :
Ceiling :
>= 8 km
>= 3000ft
5 to 8 km
1000 to 3000 ft
1500m to 5 km
500 to 1000 ft
800 to 1500m
200 to 500 ft
< 800m
< 200 ft
Symbols :   Thunderstorms  Fog  Heavy snow  Heavy precipitations  Wind > 20 kt






- Airport Elevation : 172 ft
- IATA code : YYY


CYYY - Mont Joli

CURRENT METAR :
  • 082100Z 20018G30KT 1 3/4SM -SN OVC025 M04/M09 A3007 RMK SC8 PRESFR SLP188

EXPIRED METARs :
  • 082048Z 21019G33KT 1 3/4SM -SN OVC030 M04/M10 A3008 RMK SC8 SLP192
  • 082040Z 20016G25KT 2 1/2SM -SN OVC030 M03/M10 A3009 RMK SC8 SLP195
  • 082000Z 20016G27KT 15SM FEW030 OVC060 M04/M11 A3011 RMK SC1SC8 SC TR SLP203
  • 081900Z 19012KT 15SM FEW030 OVC090 M04/M12 A3014 RMK SC1AC8 SC TR SLP211

TAF TAF CYYY
Valid from the 08 at 20:00 until the 09 at 08:00 UTC


081938Z 0820/0908 19012G22KT 6SM -SN OVC025
TEMPO 0820/0822 11/2SM -SN VV012
PROB30 0820/0822 3/4SM -SN VV008
FM082200 20015G25KT 21/2SM -SN OVC020
TEMPO 0822/0902 6SM -SN OVC025
PROB40 0822/0902 11/2SM -SN VV012
FM090200 21015G25KT P6SM OVC025
TEMPO 0902/0908 OVC020 RMK NXT FCST BY 090200Z



MET'MAP, your aeronautical weather chart ! - Copyright ORBIFLY December 2007 - Disclaimer

ORBIFLY MET'MAP TEAM :

Programming & Development : Alexandra Zaïnal
Concept & original design : Baudouin d'Aumeries
Assistance for programming : Marc-Olivier Méhu
Technical & hardware support : Manuel Goepfert

Contact : metmap@orbifly.com




SOURCES & CREDITS :

   NOAA